Houston, Texas
Traffic Map
Current Weather Conditions
Houston, Texas
Scattered Clouds
Scattered Clouds
29°
Feels Like: 34°
Wind Chill: 29° Ceiling: Unl
Heat Index: 34° Visibility: 10mi
Dew Point: 23° Wind: 8mph
Humidity: 69% Direction: 170° (S)
Pressure: 29.95in Gusts: 0mph
Raw Report DataKIAH 300253Z 17007KT 10SM SCT250 29/23 A2995 RMK AO2 SLP142 T02940233 51005
Traffic Incident Summary
Active as of:
Severity:
Category:
InformationThere was an issue retrieving the traffic information for this location. Please try a different location or try again shortly.
Advertisements
Track Severe Weather on mobile